createdAt,value
2018-10-18T00:00:20.221Z,24.33
2018-10-18T00:02:48.016Z,24.35
2018-10-18T00:05:15.906Z,24.33
2018-10-18T00:07:43.754Z,24.35
2018-10-18T00:11:35.201Z,24.25
2018-10-18T00:14:03.086Z,24.38
2018-10-18T00:16:31.221Z,24.34
2018-10-18T00:18:59.218Z,24.32
2018-10-18T00:21:26.873Z,24.29
2018-10-18T00:23:55.209Z,24.35
2018-10-18T00:26:23.001Z,24.34
2018-10-18T00:28:50.861Z,24.37
2018-10-18T00:31:18.953Z,24.36
2018-10-18T00:33:46.997Z,24.36
2018-10-18T00:36:14.971Z,24.38
2018-10-18T00:38:42.670Z,24.37
2018-10-18T00:41:09.869Z,24.39
2018-10-18T00:43:37.845Z,24.41
2018-10-18T00:46:05.862Z,24.38
2018-10-18T00:48:33.746Z,24.34
2018-10-18T00:51:01.627Z,24.34
2018-10-18T00:53:29.524Z,24.35
2018-10-18T00:55:57.324Z,24.31
2018-10-18T00:58:25.038Z,24.34
2018-10-18T01:00:53.077Z,24.35
2018-10-18T01:03:20.788Z,24.31
2018-10-18T01:05:48.614Z,24.31
2018-10-18T01:08:16.563Z,24.37
2018-10-18T01:10:43.661Z,24.34
2018-10-18T01:13:11.308Z,24.35
2018-10-18T01:15:39.017Z,24.35
2018-10-18T01:18:07.145Z,24.35
2018-10-18T01:20:41.313Z,24.36
2018-10-18T01:23:09.386Z,24.27
2018-10-18T01:25:37.553Z,24.27
2018-10-18T01:28:05.455Z,24.31
2018-10-18T01:30:33.307Z,24.33
2018-10-18T01:33:01.034Z,24.30
2018-10-18T01:35:29.006Z,24.31
2018-10-18T01:37:57.211Z,24.30
2018-10-18T01:40:25.046Z,24.28
2018-10-18T01:42:52.305Z,24.25
2018-10-18T01:45:20.419Z,24.26
2018-10-18T01:47:48.393Z,24.24
2018-10-18T01:50:16.272Z,24.24
2018-10-18T01:52:44.153Z,24.26
2018-10-18T01:55:11.485Z,24.24
2018-10-18T01:57:39.195Z,24.27
2018-10-18T02:00:07.997Z,24.22
2018-10-18T02:02:35.662Z,24.25
2018-10-18T02:05:03.491Z,24.23
2018-10-18T02:07:31.310Z,24.25
2018-10-18T02:09:59.030Z,24.07
2018-10-18T02:12:26.841Z,24.22
2018-10-18T02:14:54.636Z,24.19
2018-10-18T02:17:22.659Z,24.19
2018-10-18T02:19:50.590Z,24.19
2018-10-18T02:22:18.526Z,24.20
2018-10-18T02:24:46.582Z,24.22
2018-10-18T02:27:14.532Z,24.25
2018-10-18T02:29:42.185Z,24.21
2018-10-18T02:32:09.790Z,24.19
2018-10-18T02:34:37.638Z,24.20
2018-10-18T02:37:05.449Z,24.13
2018-10-18T02:39:33.394Z,24.19
2018-10-18T02:42:01.371Z,24.16
2018-10-18T02:44:29.222Z,24.16
2018-10-18T02:46:56.949Z,24.13
2018-10-18T02:49:25.401Z,24.14
2018-10-18T02:51:53.191Z,24.14
2018-10-18T02:54:21.117Z,24.12
2018-10-18T02:56:48.806Z,24.13
2018-10-18T02:59:16.763Z,24.11
2018-10-18T03:01:44.631Z,24.13
2018-10-18T03:04:12.551Z,24.11
2018-10-18T03:06:40.322Z,24.10
2018-10-18T03:09:09.566Z,24.14
2018-10-18T03:11:37.422Z,24.12
2018-10-18T03:14:04.618Z,24.10
2018-10-18T03:16:32.559Z,24.13
2018-10-18T03:19:00.478Z,24.13
2018-10-18T03:21:27.674Z,24.08
2018-10-18T03:23:55.476Z,24.04
2018-10-18T03:26:23.382Z,24.07
2018-10-18T03:28:51.185Z,24.08
2018-10-18T03:31:18.903Z,24.09
2018-10-18T03:33:46.761Z,24.07
2018-10-18T03:36:15.052Z,24.08
2018-10-18T03:38:42.953Z,24.06
2018-10-18T03:41:10.802Z,24.09
2018-10-18T03:43:38.670Z,23.82
2018-10-18T03:46:06.566Z,24.04
2018-10-18T03:48:34.598Z,24.05
2018-10-18T03:51:02.307Z,24.04
2018-10-18T03:54:26.035Z,24.03
2018-10-18T03:58:06.986Z,23.79
2018-10-18T04:00:34.753Z,23.94
2018-10-18T04:04:27.189Z,24.00
2018-10-18T04:06:55.172Z,24.01
2018-10-18T04:09:23.197Z,24.01
2018-10-18T04:11:50.872Z,24.02
2018-10-18T04:14:18.698Z,23.82
2018-10-18T04:16:46.755Z,24.01
2018-10-18T04:19:14.612Z,23.98
2018-10-18T04:21:42.377Z,23.98
2018-10-18T04:24:09.880Z,24.01
2018-10-18T04:26:37.653Z,23.99
2018-10-18T04:29:05.465Z,23.99
2018-10-18T04:31:33.193Z,24.00
2018-10-18T04:34:00.810Z,23.98
2018-10-18T04:36:28.678Z,23.96
2018-10-18T04:38:56.582Z,24.00
2018-10-18T04:41:24.497Z,23.96
2018-10-18T04:43:52.409Z,23.92
2018-10-18T04:46:20.303Z,23.93
2018-10-18T04:48:48.022Z,23.94
2018-10-18T04:51:15.858Z,23.93
2018-10-18T04:53:43.730Z,23.92
2018-10-18T04:56:11.583Z,23.95
2018-10-18T04:58:39.486Z,23.69
2018-10-18T05:01:07.624Z,23.93
2018-10-18T05:03:35.313Z,23.84
2018-10-18T05:06:04.423Z,23.91
2018-10-18T05:08:32.349Z,23.92
2018-10-18T05:11:00.199Z,23.93
2018-10-18T05:13:28.052Z,23.90
2018-10-18T05:15:55.910Z,23.92
2018-10-18T05:18:23.910Z,23.91
2018-10-18T05:20:51.820Z,23.91
2018-10-18T05:23:19.659Z,23.88
2018-10-18T05:25:48.306Z,23.90
2018-10-18T05:28:16.036Z,24.18
2018-10-18T05:30:43.984Z,24.23
2018-10-18T05:33:11.306Z,24.25
2018-10-18T05:35:39.105Z,24.30
2018-10-18T05:38:06.987Z,24.32
2018-10-18T05:40:34.444Z,24.04
2018-10-18T05:43:02.339Z,23.89
2018-10-18T05:45:30.193Z,23.84
2018-10-18T05:47:58.406Z,23.85
2018-10-18T05:50:26.272Z,23.88
2018-10-18T05:52:54.039Z,23.85
2018-10-18T05:55:21.754Z,23.86
2018-10-18T05:57:49.613Z,23.86
2018-10-18T06:00:18.099Z,23.86
2018-10-18T06:02:45.617Z,23.85
2018-10-18T06:05:14.797Z,23.89
2018-10-18T06:07:43.396Z,23.84
2018-10-18T06:11:55.222Z,23.72
2018-10-18T06:14:22.966Z,23.83
2018-10-18T06:16:50.677Z,23.83
2018-10-18T06:22:41.082Z,23.78
2018-10-18T06:25:09.415Z,23.76
2018-10-18T06:27:37.317Z,23.80
2018-10-18T06:30:07.205Z,23.77
2018-10-18T06:32:35.005Z,23.80
2018-10-18T06:35:03.051Z,23.79
2018-10-18T06:37:30.535Z,23.73
2018-10-18T06:39:58.334Z,23.52
2018-10-18T06:42:26.051Z,23.58
2018-10-18T06:44:54.594Z,23.56
2018-10-18T06:47:22.452Z,23.55
2018-10-18T06:49:50.212Z,23.52
2018-10-18T06:52:18.101Z,23.47
2018-10-18T06:54:45.993Z,23.46
2018-10-18T06:57:13.826Z,23.36
2018-10-18T06:59:41.649Z,23.36
2018-10-18T07:02:09.314Z,23.44
2018-10-18T07:04:37.079Z,23.25
2018-10-18T07:07:04.990Z,23.38
2018-10-18T07:09:32.966Z,23.37
2018-10-18T07:12:00.817Z,23.39
2018-10-18T07:14:28.622Z,23.38
2018-10-18T07:16:56.506Z,23.36
2018-10-18T07:19:24.023Z,23.39
2018-10-18T07:21:51.934Z,23.37
2018-10-18T07:24:20.597Z,23.39
2018-10-18T07:26:48.502Z,23.38
2018-10-18T07:29:16.486Z,23.34
2018-10-18T07:31:44.346Z,23.36
2018-10-18T07:34:12.054Z,23.37
2018-10-18T07:36:39.366Z,23.31
2018-10-18T07:39:11.370Z,23.37
2018-10-18T07:41:39.061Z,23.35
2018-10-18T07:44:06.791Z,23.31
2018-10-18T07:46:35.840Z,23.30
2018-10-18T07:49:04.530Z,23.36
2018-10-18T07:51:32.397Z,23.40
2018-10-18T07:54:00.458Z,23.41
2018-10-18T07:56:27.773Z,23.39
2018-10-18T07:58:55.690Z,23.44
2018-10-18T08:01:23.449Z,23.45
2018-10-18T08:03:51.400Z,23.51
2018-10-18T08:06:19.224Z,23.48
2018-10-18T08:08:46.997Z,23.51
2018-10-18T08:11:14.812Z,23.56
2018-10-18T08:13:42.775Z,23.60
2018-10-18T08:16:10.610Z,23.62
2018-10-18T08:18:38.468Z,23.55
2018-10-18T08:21:06.465Z,23.60
2018-10-18T08:23:34.216Z,23.63
2018-10-18T08:26:01.996Z,23.61
2018-10-18T08:28:29.898Z,23.64
2018-10-18T08:30:58.644Z,23.62
2018-10-18T08:33:26.482Z,23.66
2018-10-18T08:35:53.967Z,23.62
2018-10-18T08:38:22.475Z,23.70
2018-10-18T08:40:50.518Z,23.68
2018-10-18T08:43:19.063Z,23.73
2018-10-18T08:45:46.975Z,23.71
2018-10-18T08:48:14.885Z,23.77
2018-10-18T08:50:42.700Z,23.81
2018-10-18T08:53:10.603Z,23.80
2018-10-18T08:55:38.543Z,23.77
2018-10-18T08:58:05.944Z,23.85
2018-10-18T09:00:33.687Z,23.83
2018-10-18T09:03:01.554Z,23.83
2018-10-18T09:05:29.289Z,23.85
2018-10-18T09:07:57.005Z,23.83
2018-10-18T09:10:25.687Z,23.83
2018-10-18T09:12:53.601Z,23.88
2018-10-18T09:15:21.598Z,23.85
2018-10-18T09:17:49.486Z,23.89
2018-10-18T09:20:16.890Z,23.90
2018-10-18T09:22:44.694Z,23.95
2018-10-18T09:25:12.724Z,23.94
2018-10-18T09:27:41.004Z,23.87
2018-10-18T09:30:11.049Z,23.89
2018-10-18T09:32:38.466Z,23.89
2018-10-18T09:35:06.460Z,23.91
2018-10-18T09:37:34.591Z,23.91
2018-10-18T09:40:02.408Z,23.90
2018-10-18T09:42:30.607Z,23.96
2018-10-18T09:44:58.642Z,23.95
2018-10-18T09:47:26.711Z,23.97
2018-10-18T09:49:54.756Z,23.95
2018-10-18T09:52:22.604Z,23.94
2018-10-18T09:54:50.513Z,23.94
2018-10-18T09:57:17.738Z,23.95
2018-10-18T09:59:45.591Z,23.95
2018-10-18T10:02:19.629Z,23.95
2018-10-18T10:04:47.569Z,23.95
2018-10-18T10:07:14.827Z,23.94
2018-10-18T10:09:42.606Z,23.98
2018-10-18T10:12:10.597Z,23.99
2018-10-18T10:14:37.950Z,23.97
2018-10-18T10:17:06.860Z,23.97
2018-10-18T10:19:34.673Z,23.96
2018-10-18T10:22:02.601Z,23.96
2018-10-18T10:24:30.565Z,23.99
2018-10-18T10:26:57.777Z,23.98
2018-10-18T10:29:25.610Z,23.96
2018-10-18T10:31:53.612Z,24.00
2018-10-18T10:34:21.485Z,23.98
2018-10-18T10:36:49.318Z,23.97
2018-10-18T10:39:17.164Z,24.00
2018-10-18T10:41:45.227Z,24.01
2018-10-18T10:44:13.085Z,24.03
2018-10-18T10:46:41.018Z,24.03
2018-10-18T10:49:09.062Z,24.01
2018-10-18T10:51:37.061Z,23.99
2018-10-18T10:54:06.719Z,24.01
2018-10-18T10:56:34.470Z,24.00
2018-10-18T10:59:18.865Z,23.99
2018-10-18T11:01:46.951Z,24.03
2018-10-18T11:04:14.907Z,24.01
2018-10-18T11:06:42.773Z,24.02
2018-10-18T11:09:11.236Z,24.03
2018-10-18T11:11:39.062Z,24.04
2018-10-18T11:14:06.938Z,24.08
2018-10-18T11:16:35.073Z,24.06
2018-10-18T11:19:03.467Z,24.06
2018-10-18T11:21:34.137Z,24.05
2018-10-18T11:24:02.011Z,24.02
2018-10-18T11:26:29.827Z,24.06
2018-10-18T11:28:57.951Z,24.02
2018-10-18T11:31:25.754Z,24.08
2018-10-18T11:33:53.026Z,24.10
2018-10-18T11:36:20.421Z,24.02
2018-10-18T11:38:48.423Z,24.04
2018-10-18T11:41:16.503Z,24.07
2018-10-18T11:43:44.234Z,24.05
2018-10-18T11:46:12.049Z,24.04
2018-10-18T11:48:39.897Z,24.06
2018-10-18T11:51:07.726Z,24.07
2018-10-18T11:53:35.561Z,24.08
2018-10-18T11:56:03.242Z,24.07
2018-10-18T11:58:30.590Z,24.05
2018-10-18T12:00:58.521Z,24.09
2018-10-18T12:03:26.329Z,24.05
2018-10-18T12:05:54.075Z,24.07
2018-10-18T12:08:21.916Z,24.06
2018-10-18T12:10:49.742Z,24.07
2018-10-18T12:13:17.609Z,24.08
2018-10-18T12:15:45.445Z,24.10
2018-10-18T12:18:13.204Z,24.10
2018-10-18T12:20:41.201Z,24.08
2018-10-18T12:23:09.061Z,24.14
2018-10-18T12:25:36.785Z,24.12
2018-10-18T12:28:04.606Z,24.13
2018-10-18T12:30:32.434Z,24.14
2018-10-18T12:33:00.229Z,24.11
2018-10-18T12:35:28.335Z,24.04
2018-10-18T12:37:56.086Z,24.15
2018-10-18T12:40:23.869Z,24.16
2018-10-18T12:42:52.042Z,24.16
2018-10-18T12:45:19.819Z,24.17
2018-10-18T12:47:47.726Z,24.20
2018-10-18T12:50:15.640Z,24.21
2018-10-18T12:52:43.843Z,24.21
2018-10-18T12:55:11.678Z,24.21
2018-10-18T12:57:39.570Z,24.21
2018-10-18T13:00:08.990Z,24.24
2018-10-18T13:02:36.990Z,24.25
2018-10-18T13:05:06.798Z,24.21
2018-10-18T13:07:34.642Z,24.24
2018-10-18T13:10:02.639Z,24.24
2018-10-18T13:12:30.652Z,24.26
2018-10-18T13:14:58.501Z,24.26
2018-10-18T13:17:26.355Z,24.24
2018-10-18T13:19:54.219Z,24.24
2018-10-18T13:22:22.043Z,24.29
2018-10-18T13:24:49.974Z,24.26
2018-10-18T13:27:17.491Z,24.28
2018-10-18T13:29:45.206Z,24.28
2018-10-18T13:32:13.226Z,24.32
2018-10-18T13:34:41.058Z,24.25
2018-10-18T13:37:08.873Z,24.20
2018-10-18T13:39:36.695Z,24.25
2018-10-18T13:42:04.653Z,24.23
2018-10-18T13:44:32.419Z,24.28
2018-10-18T13:47:00.199Z,24.29
2018-10-18T13:49:27.874Z,24.22
2018-10-18T13:51:55.754Z,24.24
2018-10-18T13:54:23.600Z,24.27
2018-10-18T13:56:51.309Z,24.26
2018-10-18T13:59:37.020Z,24.13
2018-10-18T14:02:05.308Z,24.32
2018-10-18T14:04:33.219Z,24.31
2018-10-18T14:07:00.534Z,24.36
2018-10-18T14:09:28.285Z,24.33
2018-10-18T14:11:56.023Z,24.36
2018-10-18T14:14:23.949Z,24.34
2018-10-18T14:16:51.926Z,24.31
2018-10-18T14:19:19.951Z,24.33
2018-10-18T14:21:47.946Z,24.29
2018-10-18T14:24:15.398Z,24.31
2018-10-18T14:28:06.624Z,24.30
2018-10-18T14:30:33.820Z,24.30
2018-10-18T14:33:01.703Z,24.31
2018-10-18T14:35:29.541Z,24.34
2018-10-18T14:37:57.334Z,24.29
2018-10-18T14:40:25.020Z,24.34
2018-10-18T14:42:53.690Z,24.31
2018-10-18T14:45:21.514Z,24.31
2018-10-18T14:47:49.571Z,24.33
2018-10-18T14:50:23.681Z,24.35
2018-10-18T14:52:51.486Z,24.22
2018-10-18T14:55:19.570Z,24.21
2018-10-18T14:57:47.558Z,24.21
2018-10-18T15:00:15.486Z,24.23
2018-10-18T15:02:43.216Z,24.17
2018-10-18T15:05:11.951Z,24.14
2018-10-18T15:07:40.381Z,24.11
2018-10-18T15:10:10.866Z,24.10
2018-10-18T15:12:38.820Z,24.07
2018-10-18T15:15:08.233Z,23.72
2018-10-18T15:17:35.943Z,23.94
2018-10-18T15:20:05.113Z,24.02
2018-10-18T15:22:33.034Z,24.09
2018-10-18T15:25:01.273Z,24.01
2018-10-18T15:27:29.110Z,24.14
2018-10-18T15:29:58.853Z,24.07
2018-10-18T15:32:30.452Z,24.15
2018-10-18T15:34:59.216Z,24.20
2018-10-18T15:37:28.778Z,24.20
2018-10-18T15:39:58.662Z,24.24
2018-10-18T15:42:27.885Z,24.28
2018-10-18T15:44:57.767Z,24.30
2018-10-18T15:47:27.945Z,24.33
2018-10-18T15:49:57.902Z,24.35
2018-10-18T15:52:27.607Z,24.24
2018-10-18T15:54:56.834Z,24.37
2018-10-18T15:59:58.540Z,24.44
2018-10-18T16:02:26.202Z,24.36
2018-10-18T16:04:53.824Z,24.37
2018-10-18T16:07:21.621Z,24.29
2018-10-18T16:09:49.617Z,24.21
2018-10-18T16:12:18.219Z,24.18
2018-10-18T16:14:46.066Z,24.10
2018-10-18T16:17:14.573Z,24.12
2018-10-18T16:19:42.302Z,24.19
2018-10-18T16:22:10.026Z,24.16
2018-10-18T16:24:37.888Z,24.16
2018-10-18T16:27:05.642Z,24.13
2018-10-18T16:29:33.301Z,24.11
2018-10-18T16:32:01.044Z,24.14
2018-10-18T16:34:29.222Z,24.14
2018-10-18T16:36:56.954Z,24.16
2018-10-18T16:39:24.776Z,24.14
2018-10-18T16:41:52.114Z,24.08
2018-10-18T16:44:19.762Z,24.08
2018-10-18T16:47:25.209Z,24.13
2018-10-18T16:49:53.416Z,24.17
2018-10-18T16:52:21.608Z,24.19
2018-10-18T16:54:50.013Z,24.14
2018-10-18T16:57:17.926Z,24.35
2018-10-18T16:59:45.664Z,24.35
2018-10-18T17:02:13.738Z,24.34
2018-10-18T17:04:41.590Z,24.44
2018-10-18T17:07:09.258Z,24.57
2018-10-18T17:09:36.962Z,24.63
2018-10-18T17:12:04.894Z,24.52
2018-10-18T17:14:32.783Z,24.64
2018-10-18T17:17:00.611Z,24.69
2018-10-18T17:19:28.546Z,24.63
2018-10-18T17:21:56.213Z,24.69
2018-10-18T17:24:23.856Z,24.69
2018-10-18T17:26:51.786Z,24.74
2018-10-18T17:29:19.015Z,24.72
2018-10-18T17:31:46.786Z,24.74
2018-10-18T17:34:14.635Z,24.78
2018-10-18T17:36:42.538Z,24.80
2018-10-18T17:39:10.821Z,24.71
2018-10-18T17:41:38.586Z,24.77
2018-10-18T17:44:07.065Z,24.77
2018-10-18T17:46:34.171Z,24.81
2018-10-18T17:49:01.821Z,24.80
2018-10-18T17:51:29.613Z,24.77
2018-10-18T17:53:57.498Z,24.78
2018-10-18T17:56:24.729Z,24.81
2018-10-18T17:58:52.810Z,24.82
2018-10-18T18:01:20.666Z,24.82
2018-10-18T18:03:48.302Z,24.80
2018-10-18T18:06:16.099Z,24.82
2018-10-18T18:08:44.046Z,24.87
2018-10-18T18:11:11.302Z,24.83
2018-10-18T18:13:38.992Z,24.89
2018-10-18T18:16:06.764Z,24.83
2018-10-18T18:18:34.497Z,24.89
2018-10-18T18:21:02.207Z,24.94
2018-10-18T18:23:53.017Z,24.89
2018-10-18T18:26:20.721Z,24.90
2018-10-18T18:28:48.767Z,24.90
2018-10-18T18:31:16.579Z,24.85
2018-10-18T18:33:44.193Z,24.87
2018-10-18T18:36:12.040Z,24.89
2018-10-18T18:38:39.749Z,24.90
2018-10-18T18:41:07.573Z,24.92
2018-10-18T18:43:35.197Z,24.93
2018-10-18T18:46:02.537Z,24.97
2018-10-18T18:48:30.216Z,24.93
2018-10-18T18:50:57.993Z,24.92
2018-10-18T18:53:25.726Z,24.95
2018-10-18T18:55:53.014Z,24.93
2018-10-18T18:58:20.918Z,24.90
2018-10-18T19:00:48.698Z,24.91
2018-10-18T19:03:16.531Z,24.90
2018-10-18T19:05:44.775Z,24.97
2018-10-18T19:08:13.522Z,24.96
2018-10-18T19:10:41.200Z,24.94
2018-10-18T19:13:08.963Z,24.92
2018-10-18T19:15:36.870Z,24.99
2018-10-18T19:18:04.992Z,24.96
2018-10-18T19:20:32.668Z,24.91
2018-10-18T19:23:00.610Z,24.92
2018-10-18T19:25:28.557Z,24.95
2018-10-18T19:27:56.302Z,24.99
2018-10-18T19:30:23.990Z,25.01
2018-10-18T19:32:51.850Z,24.93
2018-10-18T19:36:10.767Z,24.92
2018-10-18T19:38:39.658Z,24.99
2018-10-18T19:41:07.585Z,25.00
2018-10-18T19:43:35.836Z,24.95
2018-10-18T19:46:04.636Z,24.92
2018-10-18T19:48:32.597Z,24.86
2018-10-18T19:51:00.598Z,24.97
2018-10-18T19:53:32.294Z,24.97
2018-10-18T19:56:00.033Z,24.94
2018-10-18T19:58:28.054Z,24.95
2018-10-18T20:00:55.984Z,25.03
2018-10-18T20:03:23.723Z,25.03
2018-10-18T20:05:51.603Z,25.02
2018-10-18T20:08:19.539Z,24.81
2018-10-18T20:10:47.807Z,24.38
2018-10-18T20:13:16.054Z,24.33
2018-10-18T20:15:44.202Z,24.39
2018-10-18T20:18:11.594Z,24.49
2018-10-18T20:20:39.196Z,24.48
2018-10-18T20:23:06.934Z,24.46
2018-10-18T20:25:34.839Z,24.56
2018-10-18T20:28:03.202Z,24.48
2018-10-18T20:30:31.967Z,24.45
2018-10-18T20:33:00.011Z,24.40
2018-10-18T20:35:27.352Z,24.41
2018-10-18T20:37:55.043Z,24.53
2018-10-18T20:40:23.046Z,24.47
2018-10-18T20:42:50.896Z,24.46
2018-10-18T20:45:28.677Z,24.42
2018-10-18T20:47:56.642Z,24.39
2018-10-18T20:50:24.585Z,24.34
2018-10-18T20:53:58.874Z,24.31
2018-10-18T20:56:26.617Z,24.31
2018-10-18T20:58:54.780Z,24.51
2018-10-18T21:01:22.599Z,24.53
2018-10-18T21:03:50.525Z,24.57
2018-10-18T21:06:18.284Z,24.55
2018-10-18T21:08:45.989Z,24.62
2018-10-18T21:11:13.793Z,24.66
2018-10-18T21:13:41.559Z,24.55
2018-10-18T21:16:09.607Z,24.56
2018-10-18T21:18:36.995Z,24.56
2018-10-18T21:21:05.076Z,24.59
2018-10-18T21:23:33.093Z,24.58
2018-10-18T21:26:00.818Z,24.60
2018-10-18T21:28:28.770Z,24.53
2018-10-18T21:33:24.859Z,24.53
2018-10-18T21:35:52.670Z,24.53
2018-10-18T21:38:20.589Z,24.53
2018-10-18T21:40:48.622Z,24.52
2018-10-18T21:43:16.646Z,24.53
2018-10-18T21:45:44.854Z,24.53
2018-10-18T21:48:12.958Z,24.56
2018-10-18T21:50:40.407Z,24.49
2018-10-18T21:53:08.263Z,24.59
2018-10-18T21:55:36.046Z,24.76
2018-10-18T21:58:04.057Z,24.64
2018-10-18T22:00:36.501Z,24.76
2018-10-18T22:03:04.535Z,24.53
2018-10-18T22:05:32.692Z,24.64
2018-10-18T22:08:00.575Z,24.54
2018-10-18T22:10:28.730Z,24.51
2018-10-18T22:12:56.687Z,24.54
2018-10-18T22:15:24.563Z,24.44
2018-10-18T22:17:52.486Z,24.45
2018-10-18T22:20:19.724Z,24.51
2018-10-18T22:22:47.602Z,24.50
2018-10-18T22:25:15.506Z,24.47
2018-10-18T22:27:42.702Z,24.45
2018-10-18T22:30:10.468Z,24.44
2018-10-18T22:32:38.343Z,24.41
2018-10-18T22:35:06.165Z,24.31
2018-10-18T22:37:34.007Z,24.37
2018-10-18T22:40:01.950Z,24.35
2018-10-18T22:42:29.742Z,24.37
2018-10-18T22:44:57.656Z,24.36
2018-10-18T22:47:25.765Z,24.29
2018-10-18T22:49:53.806Z,24.22
2018-10-18T22:53:27.387Z,24.22
2018-10-18T22:55:55.449Z,24.23
2018-10-18T22:58:23.659Z,24.19
2018-10-18T23:00:51.409Z,24.19
2018-10-18T23:03:20.026Z,24.17
2018-10-18T23:05:48.625Z,24.16
2018-10-18T23:08:16.625Z,24.15
2018-10-18T23:10:44.916Z,24.11
2018-10-18T23:13:12.885Z,24.10
2018-10-18T23:15:40.303Z,24.09
2018-10-18T23:18:09.002Z,24.09
2018-10-18T23:20:36.873Z,24.09
2018-10-18T23:23:05.008Z,24.10
2018-10-18T23:25:32.722Z,24.07
2018-10-18T23:28:00.638Z,24.09
2018-10-18T23:30:28.462Z,24.10
2018-10-18T23:32:56.244Z,24.08
2018-10-18T23:35:23.946Z,24.08
2018-10-18T23:37:51.681Z,24.08
2018-10-18T23:40:19.686Z,24.13
2018-10-18T23:42:47.662Z,24.08
2018-10-18T23:45:15.670Z,24.07
2018-10-18T23:47:43.592Z,24.03
2018-10-18T23:50:11.398Z,24.04
2018-10-18T23:52:39.222Z,24.01
2018-10-18T23:55:07.007Z,24.05
2018-10-18T23:57:34.890Z,24.05
